Aérodrome :
LOGIN :

S'inscrire | Disclaimer

   EN    FR    IT 

 










Légende :    VFR   VFR Marginal   IFR   IFR Intensif   IFR Très Intensif
Visi : 
Plafond : 
>= 8 km
>= 3000ft
5 à 8 km
1000 à 3000 ft
1500m à 5 km
500 à 1000 ft
800 à 1500m
200 à 500 ft
< 800m
< 200 ft
Symboles :   Orages  Brouillard  Fortes neiges  Fortes précipitations  Vent > 20 kt
SIGMETs :   Divers  Orages  Givrage  Turbulence  Onde Orograph.  Cendres Volcan.






- Altitude de l'aérodrome : 995 ft
- Code IATA : KTW


EPKT - Katowice

DERNIER METAR :
  • 250700Z 22014KT 9999 -RA FEW024 SCT040 06/05 Q1003

METARs EXPIRÉS :
  • 250630Z 22014KT 9999 -RA OVC024 06/05 Q1003
  • 250600Z 22013KT 9999 -RA OVC024 06/04 Q1003
  • 250530Z 23013KT 9999 -RA BKN025 06/04 Q1003
  • 250500Z 23013KT 9999 -RA BKN026 06/04 Q1003
  • 250430Z 23014KT 9999 -RA BKN031 06/04 Q1003

TAF TAF EPKT
Valide du 25 à 06h jusqu'au 26 à 06h UTC


250530Z 2506/2606 23015G25KT 9999 OVC025
BECMG 2506/2509 25013KT BKN013 OVC020
TEMPO 2509/2515 3500 RADZ BKN008 OVC020
BECMG 2515/2518 BKN020
TEMPO 2519/2522 BKN013



MET'MAP, la Météo Aéronautique d'un coup d'oeil ! - Copyright ORBIFLY Décembre 2007 - Disclaimer

ORBIFLY MET'MAP TEAM :

Programmation & Développement : Alexandra Zaïnal
Sur une idée originale de : Baudouin d'Aumeries
Assistance à la programmation : Marc-Olivier Méhu
Soutien technique & logistique : Manuel Goepfert

Contact : metmap@orbifly.com




SOURCES & CREDITS :

   NOAA